EFLP

Lappeenranta Airport

Lappeenranta, Finland
METAR EFLP 161320Z AUTO 10004KT 060V130 9999 -IC OVC005 M06/M07 Q1033
Observed Flight Rules
Dec-16 @ 13:20 UTC (15 minutes ago) Instrument Flight Rules
Wind Visibility Clouds Conditions
100° at 4 knots 10,000+ meters
  • Overcast at 500' AGL
  • Light Ice crystals
Temperatures Readings
Current -6°C / 21°F
Dewpoint -7°C / 19°F
Humidity 93%
Altimeter 30.5" Hg
Pressure 1033 hPa
Elevation 106
METAR EFLP 161320Z AUTO 10004KT 060V130 9999 -IC OVC005 M06/M07 Q1033
Observed Flight Rules
Dec-16 @ 13:20 UTC
(15 minutes ago)
IFR
Wind Visibility
100° at 4 knots 10,000+ meters
Clouds
  • Overcast at 500' AGL
Conditions
  • Light Ice crystals
Temperature Dewpoint
-6°C / 21°F -7°C / 19°F
Humidity Altimeter Pressure
93% 30.5" Hg 1033 hPa